createdAt,value
2023-01-13T00:01:29.902Z,15.66
2023-01-13T00:03:58.115Z,16.51
2023-01-13T00:06:26.398Z,15.56
2023-01-13T00:08:57.247Z,14.67
2023-01-13T00:11:26.580Z,15.53
2023-01-13T00:13:57.161Z,16.50
2023-01-13T00:16:25.261Z,15.60
2023-01-13T00:18:53.189Z,14.59
2023-01-13T00:21:24.337Z,15.10
2023-01-13T00:23:56.448Z,16.42
2023-01-13T00:26:28.041Z,16.38
2023-01-13T00:29:00.300Z,15.16
2023-01-13T00:31:29.947Z,14.60
2023-01-13T00:34:00.597Z,15.80
2023-01-13T00:36:29.468Z,16.43
2023-01-13T00:38:58.416Z,15.34
2023-01-13T00:41:27.270Z,14.46
2023-01-13T00:43:55.264Z,15.30
2023-01-13T00:46:23.442Z,16.41
2023-01-13T00:48:51.784Z,15.86
2023-01-13T00:51:21.973Z,14.74
2023-01-13T00:53:52.087Z,14.84
2023-01-13T00:56:39.062Z,16.18
2023-01-13T00:59:10.759Z,16.37
2023-01-13T01:01:39.360Z,15.13
2023-01-13T01:04:07.709Z,14.51
2023-01-13T01:06:35.695Z,15.67
2023-01-13T01:09:04.984Z,16.44
2023-01-13T01:11:33.771Z,15.45
2023-01-13T01:14:03.763Z,14.60
2023-01-13T01:16:33.315Z,15.48
2023-01-13T01:19:02.172Z,16.51
2023-01-13T01:21:30.265Z,15.80
2023-01-13T01:24:01.774Z,14.72
2023-01-13T01:26:31.092Z,15.33
2023-01-13T01:28:59.533Z,16.52
2023-01-13T01:31:34.117Z,16.07
2023-01-13T01:34:02.453Z,14.84
2023-01-13T01:36:30.563Z,14.98
2023-01-13T01:38:59.493Z,16.26
2023-01-13T01:41:32.098Z,16.56
2023-01-13T01:44:43.640Z,15.33
2023-01-13T01:47:15.886Z,14.88
2023-01-13T01:49:44.910Z,16.22
2023-01-13T01:52:36.656Z,16.70
2023-01-13T01:55:21.882Z,15.29
2023-01-13T01:58:02.032Z,14.72
2023-01-13T02:00:30.381Z,15.87
2023-01-13T02:02:59.454Z,16.44
2023-01-13T02:05:27.861Z,15.43
2023-01-13T02:07:58.053Z,14.74
2023-01-13T02:10:28.860Z,15.69
2023-01-13T02:13:04.164Z,16.71
2023-01-13T02:15:53.758Z,16.14
2023-01-13T02:19:05.066Z,14.81
2023-01-13T02:22:05.325Z,15.43
2023-01-13T02:24:54.357Z,16.59
2023-01-13T02:27:39.205Z,15.66
2023-01-13T02:30:44.485Z,14.56
2023-01-13T02:33:36.623Z,15.49
2023-01-13T02:36:11.844Z,16.56
2023-01-13T02:39:14.648Z,15.66
2023-01-13T02:42:26.698Z,14.54
2023-01-13T02:45:07.871Z,15.78
2023-01-13T02:47:38.734Z,16.61
2023-01-13T02:50:17.488Z,15.63
2023-01-13T02:52:56.724Z,14.63
2023-01-13T02:55:39.102Z,15.50
2023-01-13T02:58:09.735Z,16.58
2023-01-13T03:00:38.174Z,15.81
2023-01-13T03:03:06.157Z,14.70
2023-01-13T03:05:34.362Z,15.03
2023-01-13T03:08:26.639Z,16.28
2023-01-13T03:11:16.880Z,16.30
2023-01-13T03:14:26.705Z,14.94
2023-01-13T03:17:13.140Z,14.88
2023-01-13T03:20:05.470Z,16.30
2023-01-13T03:23:08.601Z,15.72
2023-01-13T03:25:51.467Z,14.60
2023-01-13T03:28:30.351Z,15.63
2023-01-13T03:31:04.973Z,16.64
2023-01-13T03:33:39.762Z,15.78
2023-01-13T03:36:10.807Z,14.63
2023-01-13T03:38:45.876Z,15.09
2023-01-13T03:41:30.817Z,16.22
2023-01-13T03:44:27.427Z,15.36
2023-01-13T03:47:16.043Z,14.43
2023-01-13T03:50:02.686Z,15.67
2023-01-13T03:52:38.242Z,16.27
2023-01-13T03:55:19.268Z,15.09
2023-01-13T03:58:37.114Z,14.44
2023-01-13T04:01:22.010Z,16.05
2023-01-13T04:04:17.053Z,15.95
2023-01-13T04:06:54.525Z,14.60
2023-01-13T04:09:55.652Z,14.75
2023-01-13T04:12:52.276Z,16.26
2023-01-13T04:15:24.295Z,15.66
2023-01-13T04:17:52.878Z,14.50
2023-01-13T04:20:21.283Z,14.26
2023-01-13T04:22:49.273Z,15.47
2023-01-13T04:25:17.722Z,16.15
2023-01-13T04:27:45.806Z,15.13
2023-01-13T04:30:14.046Z,14.25
2023-01-13T04:32:42.035Z,15.07
2023-01-13T04:35:12.404Z,16.11
2023-01-13T04:37:40.599Z,15.37
2023-01-13T04:40:09.756Z,14.30
2023-01-13T04:42:37.736Z,14.56
2023-01-13T04:45:06.625Z,15.81
2023-01-13T04:47:34.680Z,15.46
2023-01-13T04:50:02.929Z,14.39
2023-01-13T04:52:30.844Z,14.34
2023-01-13T04:54:58.902Z,15.69
2023-01-13T04:57:26.917Z,16.14
2023-01-13T04:59:55.045Z,15.00
2023-01-13T05:02:23.219Z,14.16
2023-01-13T05:04:51.330Z,14.96
2023-01-13T05:07:19.386Z,16.10
2023-01-13T05:09:47.582Z,15.62
2023-01-13T05:12:34.302Z,14.51
2023-01-13T05:15:20.919Z,14.28
2023-01-13T05:17:49.094Z,15.68
2023-01-13T05:20:18.256Z,16.17
2023-01-13T05:23:04.610Z,15.13
2023-01-13T05:25:42.348Z,14.11
2023-01-13T05:28:12.155Z,14.84
2023-01-13T05:30:43.613Z,16.03
2023-01-13T05:33:17.746Z,15.73
2023-01-13T05:35:47.231Z,14.59
2023-01-13T05:38:15.997Z,14.17
2023-01-13T05:41:02.681Z,15.35
2023-01-13T05:43:30.764Z,16.22
2023-01-13T05:46:08.067Z,15.24
2023-01-13T05:48:39.350Z,14.18
2023-01-13T05:51:10.179Z,14.23
2023-01-13T05:53:40.683Z,15.57
2023-01-13T05:56:09.564Z,15.99
2023-01-13T05:58:37.587Z,14.93
2023-01-13T06:01:10.505Z,14.08
2023-01-13T06:03:38.551Z,14.75
2023-01-13T06:06:09.076Z,15.96
2023-01-13T06:08:39.533Z,15.73
2023-01-13T06:11:07.957Z,14.63
2023-01-13T06:13:36.152Z,13.85
2023-01-13T06:16:04.668Z,14.41
2023-01-13T06:18:32.794Z,15.72
2023-01-13T06:21:00.782Z,16.17
2023-01-13T06:23:29.073Z,15.14
2023-01-13T06:26:08.789Z,14.18
2023-01-13T06:28:36.787Z,14.12
2023-01-13T06:31:07.822Z,15.41
2023-01-13T06:33:40.160Z,16.03
2023-01-13T06:36:18.852Z,15.01
2023-01-13T06:38:49.700Z,14.01
2023-01-13T06:41:18.430Z,14.03
2023-01-13T06:43:48.750Z,15.37
2023-01-13T06:46:17.031Z,15.96
2023-01-13T06:48:45.154Z,14.98
2023-01-13T06:51:13.464Z,14.04
2023-01-13T06:53:41.416Z,13.88
2023-01-13T06:56:09.479Z,15.16
2023-01-13T06:58:37.561Z,15.86
2023-01-13T07:01:07.184Z,14.94
2023-01-13T07:03:35.268Z,13.98
2023-01-13T07:06:03.427Z,14.11
2023-01-13T07:08:31.637Z,15.36
2023-01-13T07:11:02.615Z,15.93
2023-01-13T07:13:49.055Z,14.95
2023-01-13T07:16:17.429Z,13.92
2023-01-13T07:18:45.574Z,14.22
2023-01-13T07:21:13.680Z,15.62
2023-01-13T07:23:42.115Z,16.19
2023-01-13T07:26:12.311Z,15.17
2023-01-13T07:28:40.716Z,14.17
2023-01-13T07:31:23.706Z,13.97
2023-01-13T07:33:51.785Z,15.51
2023-01-13T07:36:19.768Z,16.10
2023-01-13T07:38:47.874Z,15.09
2023-01-13T07:41:34.448Z,14.14
2023-01-13T07:44:06.347Z,14.00
2023-01-13T07:46:34.811Z,15.42
2023-01-13T07:49:03.867Z,16.06
2023-01-13T07:51:32.191Z,15.08
2023-01-13T07:54:00.232Z,14.13
2023-01-13T07:56:28.351Z,13.90
2023-01-13T07:58:56.372Z,15.25
2023-01-13T08:01:24.408Z,16.00
2023-01-13T08:03:52.354Z,15.03
2023-01-13T08:06:20.339Z,14.11
2023-01-13T08:08:48.261Z,13.94
2023-01-13T08:11:16.526Z,15.31
2023-01-13T08:13:45.363Z,16.15
2023-01-13T08:16:15.493Z,15.29
2023-01-13T08:18:43.727Z,14.34
2023-01-13T08:21:14.499Z,14.01
2023-01-13T08:23:44.388Z,15.24
2023-01-13T08:26:17.656Z,16.06
2023-01-13T08:28:46.252Z,15.15
2023-01-13T08:31:16.675Z,14.24
2023-01-13T08:33:44.994Z,13.99
2023-01-13T08:36:14.031Z,15.32
2023-01-13T08:38:42.325Z,16.08
2023-01-13T08:41:36.207Z,15.21
2023-01-13T08:44:06.749Z,14.17
2023-01-13T08:46:35.320Z,14.14
2023-01-13T08:49:04.192Z,15.43
2023-01-13T08:51:32.340Z,16.13
2023-01-13T08:54:00.534Z,15.27
2023-01-13T08:56:31.303Z,14.39
2023-01-13T08:59:01.559Z,14.30
2023-01-13T09:01:34.148Z,15.62
2023-01-13T09:04:02.165Z,16.34
2023-01-13T09:06:30.375Z,15.47
2023-01-13T09:08:59.596Z,14.62
2023-01-13T09:11:52.046Z,14.42
2023-01-13T09:14:25.808Z,16.01
2023-01-13T09:16:53.909Z,16.73
2023-01-13T09:19:22.026Z,15.84
2023-01-13T09:21:50.275Z,14.96
2023-01-13T09:24:20.019Z,14.39
2023-01-13T09:26:49.017Z,15.15
2023-01-13T09:29:17.691Z,16.52
2023-01-13T09:31:46.030Z,16.26
2023-01-13T09:34:38.200Z,15.27
2023-01-13T09:37:07.461Z,14.47
2023-01-13T09:39:36.315Z,14.85
2023-01-13T09:42:46.227Z,16.31
2023-01-13T09:45:23.938Z,16.11
2023-01-13T09:48:06.772Z,15.11
2023-01-13T09:50:43.604Z,14.40
2023-01-13T09:53:39.875Z,14.67
2023-01-13T09:56:10.845Z,16.39
2023-01-13T09:58:38.864Z,16.45
2023-01-13T10:01:32.481Z,15.49
2023-01-13T10:04:10.886Z,14.68
2023-01-13T10:06:44.261Z,15.39
2023-01-13T10:09:27.616Z,16.72
2023-01-13T10:12:16.543Z,16.23
2023-01-13T10:14:56.122Z,15.17
2023-01-13T10:17:51.163Z,14.97
2023-01-13T10:20:27.687Z,16.53
2023-01-13T10:23:53.547Z,16.67
2023-01-13T10:26:34.306Z,15.34
2023-01-13T10:29:02.323Z,14.86
2023-01-13T10:31:30.384Z,16.05
2023-01-13T10:34:06.284Z,17.30
2023-01-13T10:36:34.357Z,16.82
2023-01-13T10:39:16.032Z,15.83
2023-01-13T10:41:45.054Z,15.15
2023-01-13T10:44:20.835Z,16.15
2023-01-13T10:47:02.348Z,17.26
2023-01-13T10:49:38.950Z,16.35
2023-01-13T10:52:40.634Z,15.42
2023-01-13T10:55:35.950Z,15.27
2023-01-13T10:58:25.676Z,17.00
2023-01-13T11:01:08.708Z,16.96
2023-01-13T11:03:57.818Z,15.82
2023-01-13T11:06:42.056Z,15.12
2023-01-13T11:09:25.376Z,16.32
2023-01-13T11:12:12.037Z,17.61
2023-01-13T11:14:52.628Z,16.76
2023-01-13T11:18:00.786Z,15.66
2023-01-13T11:20:55.683Z,15.62
2023-01-13T11:23:51.941Z,17.25
2023-01-13T11:26:49.844Z,16.67
2023-01-13T11:29:52.565Z,15.51
2023-01-13T11:32:31.071Z,15.53
2023-01-13T11:35:30.653Z,17.05
2023-01-13T11:38:21.457Z,16.88
2023-01-13T11:40:58.637Z,15.68
2023-01-13T11:44:04.647Z,15.25
2023-01-13T11:46:42.357Z,16.76
2023-01-13T11:49:44.254Z,17.30
2023-01-13T11:53:12.801Z,16.02
2023-01-13T11:56:30.098Z,15.10
2023-01-13T11:59:32.236Z,16.73
2023-01-13T12:02:10.330Z,17.32
2023-01-13T12:05:02.693Z,16.16
2023-01-13T12:07:48.576Z,15.17
2023-01-13T12:10:38.633Z,15.54
2023-01-13T12:14:01.053Z,17.13
2023-01-13T12:16:31.290Z,16.27
2023-01-13T12:19:21.643Z,15.33
2023-01-13T12:22:29.506Z,15.35
2023-01-13T12:25:22.333Z,17.14
2023-01-13T12:28:07.813Z,16.71
2023-01-13T12:30:52.353Z,15.53
2023-01-13T12:33:57.968Z,15.12
2023-01-13T12:36:49.286Z,16.80
2023-01-13T12:39:29.665Z,16.80
2023-01-13T12:42:38.894Z,15.65
2023-01-13T12:45:12.994Z,16.09
2023-01-13T12:47:44.961Z,17.47
2023-01-13T12:50:22.704Z,17.09
2023-01-13T12:53:20.359Z,15.77
2023-01-13T12:55:54.477Z,14.69
2023-01-13T12:58:29.170Z,14.04
2023-01-13T13:01:01.423Z,14.71
2023-01-13T13:03:34.988Z,16.13
2023-01-13T13:06:11.241Z,15.56
2023-01-13T13:09:28.548Z,14.52
2023-01-13T13:12:50.120Z,14.79
2023-01-13T13:15:31.763Z,16.70
2023-01-13T13:18:00.218Z,16.89
2023-01-13T13:21:04.195Z,15.68
2023-01-13T13:23:41.957Z,15.09
2023-01-13T13:26:25.294Z,16.47
2023-01-13T13:29:26.533Z,17.15
2023-01-13T13:32:17.636Z,15.81
2023-01-13T13:34:51.240Z,14.98
2023-01-13T13:38:03.621Z,16.10
2023-01-13T13:40:58.834Z,16.86
2023-01-13T13:43:48.667Z,15.59
2023-01-13T13:46:48.456Z,14.69
2023-01-13T13:49:22.868Z,15.83
2023-01-13T13:52:01.421Z,16.77
2023-01-13T13:54:30.033Z,15.78
2023-01-13T13:57:01.131Z,14.79
2023-01-13T13:59:34.614Z,15.06
2023-01-13T14:02:04.154Z,16.56
2023-01-13T14:04:37.560Z,16.87
2023-01-13T14:07:22.090Z,15.68
2023-01-13T14:11:13.692Z,14.86
2023-01-13T14:15:18.250Z,16.77
2023-01-13T14:26:53.433Z,16.69
2023-01-13T14:29:37.448Z,15.93
2023-01-13T14:48:05.679Z,14.14
2023-01-13T14:50:58.297Z,14.51
2023-01-13T14:55:54.791Z,14.85
2023-01-13T14:58:52.761Z,13.76
2023-01-13T15:06:06.961Z,15.22
2023-01-13T15:08:39.674Z,14.18
2023-01-13T15:11:25.100Z,13.40
2023-01-13T15:22:40.232Z,13.50
2023-01-13T15:25:12.342Z,12.98
2023-01-13T15:27:43.071Z,14.11
2023-01-13T15:30:18.070Z,14.94
2023-01-13T15:32:46.536Z,14.00
2023-01-13T15:35:19.006Z,13.16
2023-01-13T15:37:50.520Z,12.71
2023-01-13T15:40:23.554Z,13.97
2023-01-13T15:43:19.495Z,14.82
2023-01-13T15:46:11.557Z,13.74
2023-01-13T15:48:39.750Z,12.93
2023-01-13T15:51:12.163Z,13.88
2023-01-13T15:54:02.672Z,15.22
2023-01-13T15:56:31.096Z,14.44
2023-01-13T15:58:59.264Z,13.42
2023-01-13T16:01:30.494Z,12.69
2023-01-13T16:03:58.763Z,12.66
2023-01-13T16:06:32.860Z,14.12
2023-01-13T16:09:05.878Z,14.60
2023-01-13T16:11:34.352Z,13.56
2023-01-13T16:14:11.935Z,12.71
2023-01-13T16:16:42.735Z,12.23
2023-01-13T16:19:13.057Z,13.43
2023-01-13T16:21:45.501Z,13.86
2023-01-13T16:24:21.794Z,12.93
2023-01-13T16:26:52.609Z,12.15
2023-01-13T16:29:20.707Z,12.01
2023-01-13T16:31:53.094Z,13.41
2023-01-13T16:34:21.373Z,14.12
2023-01-13T16:36:50.621Z,13.16
2023-01-13T16:39:22.596Z,12.27
2023-01-13T16:41:53.275Z,11.85
2023-01-13T16:44:24.838Z,13.08
2023-01-13T16:46:55.426Z,14.01
2023-01-13T16:49:25.604Z,13.10
2023-01-13T16:51:56.805Z,12.22
2023-01-13T16:54:25.066Z,11.72
2023-01-13T16:56:55.336Z,12.84
2023-01-13T16:59:23.572Z,13.90
2023-01-13T17:01:52.186Z,13.12
2023-01-13T17:04:23.636Z,12.21
2023-01-13T17:06:58.022Z,11.55
2023-01-13T17:09:28.981Z,11.64
2023-01-13T17:11:57.663Z,13.28
2023-01-13T17:14:26.585Z,13.78
2023-01-13T17:16:58.133Z,12.75
2023-01-13T17:19:26.492Z,11.86
2023-01-13T17:21:54.968Z,11.42
2023-01-13T17:24:26.810Z,12.61
2023-01-13T17:26:55.309Z,13.66
2023-01-13T17:29:26.697Z,12.84
2023-01-13T17:31:55.520Z,11.91
2023-01-13T17:34:25.108Z,11.26
2023-01-13T17:36:53.718Z,11.49
2023-01-13T17:39:26.920Z,13.08
2023-01-13T17:41:58.596Z,13.59
2023-01-13T17:44:27.071Z,12.56
2023-01-13T17:46:55.436Z,11.70
2023-01-13T17:49:24.183Z,11.09
2023-01-13T17:51:53.122Z,11.23
2023-01-13T17:54:22.782Z,12.80
2023-01-13T17:56:53.471Z,13.30
2023-01-13T17:59:23.185Z,12.32
2023-01-13T18:01:52.555Z,11.48
2023-01-13T18:04:27.293Z,10.89
2023-01-13T18:06:57.119Z,11.06
2023-01-13T18:09:27.038Z,12.64
2023-01-13T18:11:55.317Z,13.17
2023-01-13T18:14:23.609Z,12.21
2023-01-13T18:16:52.201Z,11.38
2023-01-13T18:19:38.919Z,10.82
2023-01-13T18:22:25.728Z,11.68
2023-01-13T18:25:14.966Z,13.10
2023-01-13T18:27:46.598Z,12.32
2023-01-13T18:30:17.207Z,11.44
2023-01-13T18:32:52.304Z,10.81
2023-01-13T18:35:27.959Z,10.96
2023-01-13T18:38:12.343Z,12.60
2023-01-13T18:40:53.570Z,12.69
2023-01-13T18:43:22.095Z,11.67
2023-01-13T18:45:51.623Z,10.95
2023-01-13T18:48:21.060Z,10.66
2023-01-13T18:51:11.497Z,12.19
2023-01-13T18:53:41.124Z,13.00
2023-01-13T18:56:14.320Z,12.14
2023-01-13T18:58:51.157Z,11.25
2023-01-13T19:01:26.100Z,10.64
2023-01-13T19:04:00.335Z,11.26
2023-01-13T19:06:53.745Z,12.60
2023-01-13T19:09:24.895Z,11.86
2023-01-13T19:11:53.680Z,11.04
2023-01-13T19:14:42.384Z,10.47
2023-01-13T19:17:15.237Z,10.55
2023-01-13T19:19:56.013Z,12.13
2023-01-13T19:22:36.190Z,12.55
2023-01-13T19:25:06.600Z,11.55
2023-01-13T19:27:37.542Z,10.77
2023-01-13T19:30:09.132Z,10.25
2023-01-13T19:32:37.809Z,10.69
2023-01-13T19:35:09.244Z,12.23
2023-01-13T19:37:38.658Z,12.45
2023-01-13T19:40:12.320Z,11.49
2023-01-13T19:43:05.775Z,10.72
2023-01-13T19:45:36.519Z,10.42
2023-01-13T19:48:06.962Z,11.78
2023-01-13T19:50:41.427Z,12.63
2023-01-13T19:53:18.108Z,11.75
2023-01-13T19:55:49.988Z,10.89
2023-01-13T19:58:20.145Z,10.64
2023-01-13T20:00:54.651Z,11.98
2023-01-13T20:03:31.031Z,12.67
2023-01-13T20:06:08.525Z,11.69
2023-01-13T20:08:37.891Z,10.84
2023-01-13T20:11:21.811Z,10.52
2023-01-13T20:13:56.317Z,11.90
2023-01-13T20:16:27.171Z,12.32
2023-01-13T20:18:57.002Z,11.40
2023-01-13T20:21:29.114Z,10.64
2023-01-13T20:23:57.694Z,10.19
2023-01-13T20:26:26.522Z,11.08
2023-01-13T20:28:55.380Z,12.26
2023-01-13T20:31:27.621Z,11.74
2023-01-13T20:33:57.865Z,10.85
2023-01-13T20:36:31.623Z,10.25
2023-01-13T20:39:02.197Z,10.17
2023-01-13T20:41:49.391Z,11.57
2023-01-13T20:44:19.235Z,12.19
2023-01-13T20:46:47.736Z,11.30
2023-01-13T20:49:16.570Z,10.56
2023-01-13T20:51:45.942Z,10.03
2023-01-13T20:54:14.586Z,10.12
2023-01-13T20:56:43.940Z,11.60
2023-01-13T20:59:12.119Z,12.26
2023-01-13T21:01:41.070Z,11.40
2023-01-13T21:04:09.817Z,10.61
2023-01-13T21:06:38.301Z,10.06
2023-01-13T21:09:06.549Z,10.09
2023-01-13T21:11:53.314Z,11.54
2023-01-13T21:14:45.235Z,12.28
2023-01-13T21:17:34.023Z,11.24
2023-01-13T21:20:04.312Z,10.40
2023-01-13T21:22:32.761Z,9.96
2023-01-13T21:25:02.601Z,10.82
2023-01-13T21:27:31.666Z,12.18
2023-01-13T21:30:00.356Z,11.80
2023-01-13T21:32:29.025Z,10.91
2023-01-13T21:34:59.048Z,10.25
2023-01-13T21:37:27.382Z,9.81
2023-01-13T21:39:55.810Z,10.42
2023-01-13T21:42:42.508Z,11.97
2023-01-13T21:45:29.683Z,12.12
2023-01-13T21:47:58.224Z,11.05
2023-01-13T21:50:28.840Z,10.35
2023-01-13T21:52:58.345Z,9.85
2023-01-13T21:55:29.963Z,10.19
2023-01-13T21:58:13.427Z,11.74
2023-01-13T22:00:49.173Z,12.29
2023-01-13T22:03:18.935Z,11.28
2023-01-13T22:05:56.810Z,10.51
2023-01-13T22:08:25.267Z,9.94
2023-01-13T22:11:00.290Z,9.95
2023-01-13T22:13:48.101Z,11.45
2023-01-13T22:16:16.690Z,12.29
2023-01-13T22:18:44.702Z,11.38
2023-01-13T22:21:12.871Z,10.55
2023-01-13T22:23:41.168Z,9.97
2023-01-13T22:26:09.390Z,10.20
2023-01-13T22:28:43.005Z,11.73
2023-01-13T22:31:18.311Z,12.24
2023-01-13T22:33:49.672Z,11.24
2023-01-13T22:36:17.785Z,10.44
2023-01-13T22:38:46.084Z,10.29
2023-01-13T22:41:14.417Z,11.66
2023-01-13T22:43:42.606Z,12.46
2023-01-13T22:46:12.375Z,11.62
2023-01-13T22:48:41.217Z,10.73
2023-01-13T22:51:12.459Z,10.12
2023-01-13T22:53:41.107Z,10.31
2023-01-13T22:56:19.748Z,11.83
2023-01-13T22:58:49.049Z,12.09
2023-01-13T23:01:17.971Z,11.13
2023-01-13T23:03:47.994Z,10.36
2023-01-13T23:06:18.270Z,10.25
2023-01-13T23:08:47.364Z,11.66
2023-01-13T23:11:17.986Z,12.34
2023-01-13T23:13:46.614Z,11.39
2023-01-13T23:16:18.362Z,10.54
2023-01-13T23:18:48.167Z,9.95
2023-01-13T23:21:23.748Z,10.51
2023-01-13T23:23:52.462Z,12.01
2023-01-13T23:26:21.264Z,11.86
2023-01-13T23:28:49.885Z,10.90
2023-01-13T23:31:21.952Z,10.16
2023-01-13T23:33:49.995Z,10.27
2023-01-13T23:36:21.479Z,11.72
2023-01-13T23:38:50.930Z,11.94
2023-01-13T23:41:23.032Z,10.94
2023-01-13T23:44:00.025Z,10.17
2023-01-13T23:46:30.204Z,10.13
2023-01-13T23:48:58.351Z,11.58
2023-01-13T23:51:27.619Z,12.29
2023-01-13T23:53:56.335Z,11.38
2023-01-13T23:56:27.950Z,10.46
2023-01-13T23:58:56.513Z,9.88
